createdAt,value
2019-02-10T00:02:15.782Z,1.30
2019-02-10T00:04:43.857Z,1.27
2019-02-10T00:07:12.496Z,1.33
2019-02-10T00:09:40.703Z,1.10
2019-02-10T00:12:09.246Z,1.30
2019-02-10T00:14:37.384Z,1.37
2019-02-10T00:17:06.017Z,0.93
2019-02-10T00:19:34.175Z,1.07
2019-02-10T00:22:02.319Z,1.10
2019-02-10T00:24:30.844Z,1.20
2019-02-10T00:26:58.975Z,1.57
2019-02-10T00:29:27.100Z,1.13
2019-02-10T00:31:55.217Z,1.30
2019-02-10T00:34:25.538Z,1.17
2019-02-10T00:36:54.270Z,1.20
2019-02-10T00:39:22.414Z,1.00
2019-02-10T00:41:50.530Z,1.20
2019-02-10T00:44:18.844Z,1.00
2019-02-10T00:46:47.227Z,1.00
2019-02-10T00:49:15.574Z,1.00
2019-02-10T00:51:43.682Z,0.90
2019-02-10T00:54:12.299Z,1.20
2019-02-10T00:56:40.458Z,1.20
2019-02-10T00:59:08.981Z,1.00
2019-02-10T01:01:36.854Z,1.10
2019-02-10T01:04:05.025Z,1.03
2019-02-10T01:06:40.950Z,1.10
2019-02-10T01:09:04.694Z,0.63
2019-02-10T01:11:33.133Z,1.10
2019-02-10T01:14:01.215Z,1.20
2019-02-10T01:16:29.893Z,1.07
2019-02-10T01:19:08.417Z,1.00
2019-02-10T01:21:37.552Z,1.00
2019-02-10T01:24:05.779Z,1.73
2019-02-10T01:26:33.872Z,0.90
2019-02-10T01:29:02.251Z,1.00
2019-02-10T01:31:30.594Z,0.93
2019-02-10T01:33:58.803Z,1.07
2019-02-10T01:36:26.745Z,1.20
2019-02-10T01:38:55.017Z,1.07
2019-02-10T01:41:23.535Z,0.70
2019-02-10T01:43:51.678Z,1.20
2019-02-10T01:46:19.970Z,0.90
2019-02-10T01:48:48.321Z,1.23
2019-02-10T01:51:16.405Z,0.93
2019-02-10T01:53:45.073Z,0.97
2019-02-10T01:56:13.185Z,0.93
2019-02-10T01:58:41.342Z,1.17
2019-02-10T02:01:09.630Z,1.00
2019-02-10T02:03:40.381Z,1.10
2019-02-10T02:06:08.334Z,1.50
2019-02-10T02:08:36.591Z,1.03
2019-02-10T02:11:05.067Z,0.93
2019-02-10T02:13:33.065Z,1.00
2019-02-10T02:16:01.213Z,1.33
2019-02-10T02:18:29.509Z,1.40
2019-02-10T02:20:58.181Z,1.17
2019-02-10T02:23:26.544Z,1.10
2019-02-10T02:25:54.676Z,1.20
2019-02-10T02:28:22.996Z,1.30
2019-02-10T02:30:51.395Z,1.30
2019-02-10T02:33:19.553Z,1.23
2019-02-10T02:35:47.558Z,0.90
2019-02-10T02:38:16.202Z,1.30
2019-02-10T02:40:44.554Z,1.10
2019-02-10T02:43:13.275Z,1.40
2019-02-10T02:45:41.649Z,1.40
2019-02-10T02:48:09.526Z,1.97
2019-02-10T02:50:37.827Z,1.23
2019-02-10T02:53:06.178Z,1.30
2019-02-10T02:55:34.586Z,1.30
2019-02-10T02:58:02.930Z,1.30
2019-02-10T03:00:31.016Z,1.27
2019-02-10T03:02:59.685Z,1.60
2019-02-10T03:05:27.812Z,1.20
2019-02-10T03:07:55.966Z,1.27
2019-02-10T03:10:24.246Z,1.47
2019-02-10T03:12:52.600Z,1.40
2019-02-10T03:15:20.978Z,1.60
2019-02-10T03:17:49.334Z,1.03
2019-02-10T03:20:17.457Z,1.47
2019-02-10T03:22:46.086Z,2.07
2019-02-10T03:25:14.192Z,1.20
2019-02-10T03:27:42.563Z,1.80
2019-02-10T03:30:11.078Z,1.50
2019-02-10T03:32:39.352Z,1.30
2019-02-10T03:35:07.518Z,1.40
2019-02-10T03:37:35.737Z,1.47
2019-02-10T03:40:04.779Z,1.30
2019-02-10T03:42:33.158Z,1.47
2019-02-10T03:45:01.530Z,1.13
2019-02-10T03:47:29.637Z,1.47
2019-02-10T03:49:58.147Z,1.27
2019-02-10T03:52:26.626Z,1.50
2019-02-10T03:54:55.008Z,1.60
2019-02-10T03:57:23.318Z,1.60
2019-02-10T03:59:51.584Z,1.40
2019-02-10T04:02:19.838Z,1.23
2019-02-10T04:04:47.984Z,1.27
2019-02-10T04:07:16.984Z,1.10
2019-02-10T04:09:45.114Z,1.70
2019-02-10T04:12:13.369Z,1.00
2019-02-10T04:14:41.461Z,1.40
2019-02-10T04:17:09.664Z,1.30
2019-02-10T04:19:37.886Z,1.40
2019-02-10T04:22:06.033Z,1.10
2019-02-10T04:24:34.650Z,1.10
2019-02-10T04:27:11.872Z,1.70
2019-02-10T04:29:39.932Z,1.20
2019-02-10T04:32:08.187Z,1.50
2019-02-10T04:34:37.185Z,1.50
2019-02-10T04:37:05.055Z,1.40
2019-02-10T04:39:34.219Z,1.50
2019-02-10T04:42:02.538Z,1.50
2019-02-10T04:44:30.699Z,1.43
2019-02-10T04:46:58.983Z,1.60
2019-02-10T04:49:27.050Z,1.30
2019-02-10T04:51:55.141Z,1.07
2019-02-10T04:54:24.436Z,1.10
2019-02-10T04:56:52.473Z,1.60
2019-02-10T04:59:20.878Z,1.77
2019-02-10T05:01:48.946Z,1.10
2019-02-10T05:04:16.858Z,1.43
2019-02-10T05:06:45.072Z,1.20
2019-02-10T05:09:13.125Z,1.43
2019-02-10T05:11:41.628Z,1.37
2019-02-10T05:14:10.150Z,1.07
2019-02-10T05:16:38.209Z,1.20
2019-02-10T05:19:06.342Z,1.50
2019-02-10T05:21:34.494Z,1.10
2019-02-10T05:24:03.779Z,1.17
2019-02-10T05:26:32.095Z,1.40
2019-02-10T05:29:00.224Z,1.30
2019-02-10T05:31:28.052Z,1.43
2019-02-10T05:33:56.111Z,1.50
2019-02-10T05:36:24.875Z,1.30
2019-02-10T05:38:53.278Z,1.83
2019-02-10T05:41:21.206Z,1.27
2019-02-10T05:43:49.526Z,0.97
2019-02-10T05:46:17.914Z,1.20
2019-02-10T05:48:46.315Z,1.33
2019-02-10T05:51:14.442Z,1.27
2019-02-10T05:53:42.402Z,1.23
2019-02-10T05:56:10.510Z,1.17
2019-02-10T05:58:38.594Z,1.40
2019-02-10T06:01:43.189Z,1.00
2019-02-10T06:04:11.483Z,1.37
2019-02-10T06:06:39.946Z,1.27
2019-02-10T06:09:07.839Z,1.50
2019-02-10T06:11:36.071Z,1.60
2019-02-10T06:14:04.207Z,1.60
2019-02-10T06:16:32.320Z,1.00
2019-02-10T06:19:00.383Z,1.20
2019-02-10T06:21:28.480Z,1.80
2019-02-10T06:23:56.254Z,1.20
2019-02-10T06:26:24.330Z,1.30
2019-02-10T06:28:52.480Z,1.60
2019-02-10T06:31:20.816Z,1.30
2019-02-10T06:33:48.734Z,1.37
2019-02-10T06:36:17.505Z,1.20
2019-02-10T06:38:45.821Z,1.30
2019-02-10T06:41:14.179Z,1.33
2019-02-10T06:43:42.295Z,1.23
2019-02-10T06:46:10.607Z,1.53
2019-02-10T06:48:38.986Z,1.50
2019-02-10T06:51:07.659Z,1.20
2019-02-10T06:53:36.037Z,1.93
2019-02-10T06:56:04.758Z,1.60
2019-02-10T06:58:32.863Z,1.60
2019-02-10T07:01:23.906Z,1.50
2019-02-10T07:04:06.751Z,1.57
2019-02-10T07:06:35.519Z,1.47
2019-02-10T07:09:05.302Z,1.67
2019-02-10T07:11:33.523Z,1.67
2019-02-10T07:14:02.678Z,1.60
2019-02-10T07:16:33.866Z,1.40
2019-02-10T07:19:48.634Z,1.43
2019-02-10T07:23:01.893Z,1.60
2019-02-10T07:26:02.512Z,1.67
2019-02-10T07:29:02.210Z,1.70
2019-02-10T07:31:39.197Z,1.43
2019-02-10T07:34:21.490Z,1.33
2019-02-10T07:37:18.148Z,1.57
2019-02-10T07:40:27.501Z,1.70
2019-02-10T07:43:30.555Z,1.90
2019-02-10T07:46:26.682Z,1.07
2019-02-10T07:49:30.483Z,2.07
2019-02-10T07:52:48.230Z,3.03
2019-02-10T07:55:42.724Z,1.73
2019-02-10T07:59:02.443Z,1.80
2019-02-10T08:02:18.949Z,1.57
2019-02-10T08:05:18.465Z,1.77
2019-02-10T08:08:24.307Z,1.50
2019-02-10T08:11:14.490Z,1.40
2019-02-10T08:14:00.899Z,1.50
2019-02-10T08:16:55.187Z,1.87
2019-02-10T08:19:51.501Z,1.97
2019-02-10T08:23:12.391Z,1.97
2019-02-10T08:26:34.852Z,1.80
2019-02-10T08:29:48.986Z,2.07
2019-02-10T08:32:37.898Z,2.37
2019-02-10T08:35:32.170Z,2.13
2019-02-10T08:38:54.514Z,1.87
2019-02-10T08:41:43.283Z,2.10
2019-02-10T08:44:50.970Z,1.60
2019-02-10T08:48:18.624Z,1.40
2019-02-10T08:51:19.290Z,1.80
2019-02-10T08:53:47.697Z,1.80
2019-02-10T08:56:16.297Z,1.67
2019-02-10T08:58:44.442Z,1.80
2019-02-10T09:01:12.596Z,1.80
2019-02-10T09:03:40.836Z,1.57
2019-02-10T09:06:08.947Z,1.40
2019-02-10T09:08:37.089Z,1.63
2019-02-10T09:11:05.393Z,1.63
2019-02-10T09:13:33.741Z,1.47
2019-02-10T09:16:01.841Z,1.40
2019-02-10T09:18:30.508Z,2.30
2019-02-10T09:20:58.602Z,1.70
2019-02-10T09:23:27.254Z,1.60
2019-02-10T09:25:55.130Z,1.43
2019-02-10T09:28:23.395Z,1.60
2019-02-10T09:30:52.082Z,1.80
2019-02-10T09:33:20.355Z,1.60
2019-02-10T09:35:48.362Z,2.00
2019-02-10T09:38:16.697Z,1.97
2019-02-10T09:40:45.273Z,1.83
2019-02-10T09:43:14.152Z,1.63
2019-02-10T09:45:42.096Z,1.80
2019-02-10T09:48:10.485Z,1.77
2019-02-10T09:50:38.805Z,1.57
2019-02-10T09:53:06.877Z,1.60
2019-02-10T09:55:35.577Z,2.13
2019-02-10T09:58:03.975Z,2.57
2019-02-10T10:00:32.345Z,1.90
2019-02-10T10:03:00.982Z,1.43
2019-02-10T10:05:29.346Z,1.70
2019-02-10T10:07:58.049Z,1.57
2019-02-10T10:10:26.423Z,1.67
2019-02-10T10:12:54.845Z,1.90
2019-02-10T10:15:22.914Z,1.77
2019-02-10T10:17:51.270Z,1.50
2019-02-10T10:20:19.444Z,1.40
2019-02-10T10:22:47.705Z,1.80
2019-02-10T10:25:16.146Z,1.20
2019-02-10T10:27:44.480Z,1.70
2019-02-10T10:30:14.833Z,1.43
2019-02-10T10:32:43.101Z,1.70
2019-02-10T10:35:11.767Z,1.63
2019-02-10T10:37:39.994Z,1.37
2019-02-10T10:40:08.471Z,1.47
2019-02-10T10:42:37.178Z,1.80
2019-02-10T10:45:05.850Z,2.03
2019-02-10T10:47:34.575Z,1.27
2019-02-10T10:50:03.291Z,1.53
2019-02-10T10:52:31.353Z,1.63
2019-02-10T10:54:59.998Z,1.40
2019-02-10T10:57:28.439Z,2.00
2019-02-10T10:59:56.774Z,1.20
2019-02-10T11:02:25.131Z,1.30
2019-02-10T11:04:53.237Z,1.63
2019-02-10T11:07:21.353Z,1.40
2019-02-10T11:09:49.963Z,1.47
2019-02-10T11:12:18.342Z,1.00
2019-02-10T11:14:46.242Z,1.20
2019-02-10T11:17:14.911Z,1.60
2019-02-10T11:19:53.769Z,1.47
2019-02-10T11:22:32.445Z,1.20
2019-02-10T11:25:00.574Z,1.23
2019-02-10T11:27:28.696Z,1.57
2019-02-10T11:29:57.280Z,1.50
2019-02-10T11:32:25.460Z,1.60
2019-02-10T11:34:53.353Z,0.90
2019-02-10T11:37:26.786Z,1.00
2019-02-10T11:39:51.758Z,0.87
2019-02-10T11:42:20.471Z,0.90
2019-02-10T11:44:48.509Z,0.97
2019-02-10T11:47:16.727Z,1.20
2019-02-10T11:49:44.983Z,1.20
2019-02-10T11:52:13.285Z,0.70
2019-02-10T11:54:41.994Z,1.03
2019-02-10T11:57:10.122Z,1.20
2019-02-10T11:59:38.466Z,1.70
2019-02-10T12:02:06.807Z,1.50
2019-02-10T12:04:35.013Z,1.03
2019-02-10T12:07:03.874Z,1.30
2019-02-10T12:09:31.680Z,0.90
2019-02-10T12:11:59.893Z,1.00
2019-02-10T12:14:27.642Z,1.10
2019-02-10T12:16:55.446Z,1.00
2019-02-10T12:19:23.523Z,1.20
2019-02-10T12:21:51.539Z,1.07
2019-02-10T12:24:19.779Z,1.00
2019-02-10T12:26:47.947Z,1.20
2019-02-10T12:29:16.126Z,0.93
2019-02-10T12:31:44.066Z,1.23
2019-02-10T12:34:12.371Z,0.80
2019-02-10T12:36:40.801Z,1.17
2019-02-10T12:39:08.873Z,0.80
2019-02-10T12:41:37.469Z,1.03
2019-02-10T12:44:05.898Z,0.97
2019-02-10T12:46:34.288Z,0.90
2019-02-10T12:49:02.483Z,0.57
2019-02-10T12:51:30.737Z,0.90
2019-02-10T12:53:58.881Z,0.80
2019-02-10T12:56:27.464Z,1.00
2019-02-10T12:58:55.573Z,0.70
2019-02-10T13:01:23.962Z,0.60
2019-02-10T13:03:52.142Z,1.03
2019-02-10T13:06:20.555Z,1.07
2019-02-10T13:08:48.933Z,0.90
2019-02-10T13:11:17.121Z,1.20
2019-02-10T13:13:45.937Z,0.97
2019-02-10T13:16:14.203Z,0.47
2019-02-10T13:18:42.466Z,0.60
2019-02-10T13:21:10.368Z,0.40
2019-02-10T13:23:38.511Z,0.50
2019-02-10T13:26:06.798Z,0.50
2019-02-10T13:28:35.454Z,0.50
2019-02-10T13:31:03.866Z,0.50
2019-02-10T13:33:32.571Z,0.37
2019-02-10T13:36:00.662Z,0.30
2019-02-10T13:38:28.725Z,0.40
2019-02-10T13:40:57.033Z,0.60
2019-02-10T13:43:33.190Z,0.40
2019-02-10T13:45:55.859Z,0.30
2019-02-10T13:48:24.008Z,0.30
2019-02-10T13:50:52.765Z,0.30
2019-02-10T13:53:20.812Z,0.70
2019-02-10T13:55:48.986Z,0.30
2019-02-10T13:58:17.058Z,0.60
2019-02-10T14:00:45.461Z,0.50
2019-02-10T14:03:13.596Z,0.43
2019-02-10T14:05:42.149Z,0.30
2019-02-10T14:08:10.276Z,0.80
2019-02-10T14:10:38.901Z,0.50
2019-02-10T14:13:07.064Z,0.90
2019-02-10T14:15:35.170Z,0.90
2019-02-10T14:18:03.155Z,1.10
2019-02-10T14:20:31.524Z,0.83
2019-02-10T14:22:59.639Z,0.67
2019-02-10T14:25:27.958Z,0.60
2019-02-10T14:27:56.175Z,0.50
2019-02-10T14:30:24.262Z,0.90
2019-02-10T14:32:52.185Z,0.50
2019-02-10T14:35:20.335Z,0.60
2019-02-10T14:37:48.445Z,0.70
2019-02-10T14:40:16.734Z,1.13
2019-02-10T14:42:44.979Z,0.60
2019-02-10T14:45:13.057Z,0.60
2019-02-10T14:47:42.053Z,0.70
2019-02-10T14:50:11.606Z,1.23
2019-02-10T14:52:39.580Z,0.73
2019-02-10T14:55:08.185Z,0.87
2019-02-10T14:57:36.442Z,0.73
2019-02-10T15:00:05.661Z,1.80
2019-02-10T15:02:33.967Z,0.80
2019-02-10T15:05:02.124Z,0.60
2019-02-10T15:07:30.201Z,0.70
2019-02-10T15:09:58.821Z,1.10
2019-02-10T15:12:26.966Z,1.00
2019-02-10T15:14:55.253Z,1.20
2019-02-10T15:17:23.893Z,1.80
2019-02-10T15:19:52.586Z,1.07
2019-02-10T15:22:20.697Z,1.17
2019-02-10T15:24:48.870Z,0.77
2019-02-10T15:27:17.435Z,0.90
2019-02-10T15:29:45.530Z,0.93
2019-02-10T15:32:16.829Z,1.00
2019-02-10T15:34:44.432Z,0.83
2019-02-10T15:37:13.001Z,0.90
2019-02-10T15:39:41.277Z,1.00
2019-02-10T15:42:09.754Z,0.73
2019-02-10T15:44:38.565Z,0.70
2019-02-10T15:47:06.923Z,1.10
2019-02-10T15:49:35.148Z,0.80
2019-02-10T15:52:03.146Z,0.90
2019-02-10T15:54:31.160Z,0.80
2019-02-10T15:56:59.511Z,0.90
2019-02-10T15:59:27.913Z,0.77
2019-02-10T16:01:56.272Z,1.10
2019-02-10T16:04:26.441Z,0.80
2019-02-10T16:06:55.126Z,0.73
2019-02-10T16:09:23.262Z,0.80
2019-02-10T16:11:51.701Z,1.50
2019-02-10T16:14:19.807Z,1.17
2019-02-10T16:16:48.086Z,0.90
2019-02-10T16:19:16.183Z,0.80
2019-02-10T16:21:44.546Z,1.07
2019-02-10T16:24:12.659Z,1.30
2019-02-10T16:26:41.442Z,1.27
2019-02-10T16:29:09.427Z,1.00
2019-02-10T16:31:38.499Z,1.43
2019-02-10T16:34:06.744Z,1.03
2019-02-10T16:36:35.123Z,1.50
2019-02-10T16:39:05.862Z,1.30
2019-02-10T16:41:34.889Z,0.80
2019-02-10T16:44:03.412Z,1.20
2019-02-10T16:46:31.607Z,0.73
2019-02-10T16:48:59.860Z,1.47
2019-02-10T16:51:27.889Z,1.90
2019-02-10T16:53:56.415Z,1.67
2019-02-10T16:56:24.996Z,1.00
2019-02-10T16:58:53.397Z,0.93
2019-02-10T17:01:21.682Z,0.97
2019-02-10T17:03:49.928Z,1.60
2019-02-10T17:06:18.275Z,0.73
2019-02-10T17:08:46.391Z,0.80
2019-02-10T17:11:14.820Z,1.20
2019-02-10T17:13:43.474Z,1.10
2019-02-10T17:16:12.535Z,2.00
2019-02-10T17:18:41.274Z,1.23
2019-02-10T17:21:09.882Z,2.07
2019-02-10T17:23:38.262Z,1.90
2019-02-10T17:26:06.956Z,1.63
2019-02-10T17:28:35.435Z,1.53
2019-02-10T17:31:03.748Z,1.73
2019-02-10T17:33:32.170Z,2.20
2019-02-10T17:36:00.200Z,1.37
2019-02-10T17:38:28.788Z,1.53
2019-02-10T17:41:10.454Z,1.97
2019-02-10T17:43:38.683Z,1.23
2019-02-10T17:46:06.823Z,1.10
2019-02-10T17:48:35.280Z,1.83
2019-02-10T17:51:03.898Z,1.40
2019-02-10T17:53:32.147Z,1.17
2019-02-10T17:56:00.218Z,1.57
2019-02-10T17:58:28.489Z,1.40
2019-02-10T18:00:57.156Z,2.10
2019-02-10T18:03:25.906Z,1.73
2019-02-10T18:05:54.523Z,1.30
2019-02-10T18:08:23.116Z,1.40
2019-02-10T18:10:51.662Z,1.13
2019-02-10T18:13:19.982Z,1.50
2019-02-10T18:16:16.900Z,1.07
2019-02-10T18:19:05.991Z,1.30
2019-02-10T18:21:49.553Z,1.50
2019-02-10T18:24:52.143Z,1.50
2019-02-10T18:27:52.163Z,1.90
2019-02-10T18:30:40.004Z,1.53
2019-02-10T18:33:21.380Z,1.90
2019-02-10T18:35:57.196Z,1.40
2019-02-10T18:38:50.877Z,1.20
2019-02-10T18:41:38.922Z,1.40
2019-02-10T18:44:16.621Z,1.40
2019-02-10T18:46:58.619Z,1.97
2019-02-10T18:49:55.290Z,1.47
2019-02-10T18:52:45.795Z,1.83
2019-02-10T18:55:39.360Z,2.73
2019-02-10T18:58:22.127Z,1.47
2019-02-10T19:01:08.365Z,1.87
2019-02-10T19:03:55.991Z,1.33
2019-02-10T19:06:41.976Z,1.27
2019-02-10T19:09:44.694Z,1.30
2019-02-10T19:12:24.557Z,1.23
2019-02-10T19:15:21.992Z,1.30
2019-02-10T19:17:56.272Z,1.63
2019-02-10T19:20:43.387Z,1.70
2019-02-10T19:23:46.419Z,1.10
2019-02-10T19:26:41.561Z,1.50
2019-02-10T19:29:28.700Z,2.10
2019-02-10T19:32:10.522Z,1.10
2019-02-10T19:34:56.697Z,1.87
2019-02-10T19:37:35.145Z,1.77
2019-02-10T19:40:23.138Z,1.53
2019-02-10T19:43:16.896Z,1.40
2019-02-10T19:45:59.421Z,1.60
2019-02-10T19:48:48.171Z,1.30
2019-02-10T19:51:37.352Z,1.33
2019-02-10T19:54:17.293Z,1.73
2019-02-10T19:57:04.605Z,1.73
2019-02-10T19:59:51.057Z,1.77
2019-02-10T20:02:34.683Z,1.80
2019-02-10T20:05:22.654Z,1.67
2019-02-10T20:08:08.646Z,1.43
2019-02-10T20:10:59.333Z,2.00
2019-02-10T20:13:43.218Z,1.60
2019-02-10T20:16:25.983Z,1.37
2019-02-10T20:19:19.662Z,1.67
2019-02-10T20:22:05.590Z,1.80
2019-02-10T20:25:04.950Z,2.50
2019-02-10T20:27:42.251Z,2.20
2019-02-10T20:30:38.839Z,2.13
2019-02-10T20:33:38.762Z,1.87
2019-02-10T20:36:24.827Z,2.37
2019-02-10T20:39:06.235Z,1.80
2019-02-10T20:41:39.546Z,1.70
2019-02-10T20:44:25.699Z,1.50
2019-02-10T20:47:06.419Z,1.30
2019-02-10T20:49:52.918Z,1.10
2019-02-10T20:52:32.670Z,1.33
2019-02-10T20:55:23.182Z,1.40
2019-02-10T20:58:02.615Z,2.00
2019-02-10T21:01:02.583Z,1.60
2019-02-10T21:03:47.909Z,1.67
2019-02-10T21:06:38.482Z,0.97
2019-02-10T21:09:25.230Z,0.97
2019-02-10T21:12:21.964Z,1.70
2019-02-10T21:15:14.264Z,1.40
2019-02-10T21:17:57.915Z,1.03
2019-02-10T21:20:57.621Z,1.00
2019-02-10T21:23:51.065Z,1.27
2019-02-10T21:26:31.238Z,1.53
2019-02-10T21:29:17.674Z,1.83
2019-02-10T21:32:02.406Z,1.83
2019-02-10T21:34:44.707Z,1.30
2019-02-10T21:37:35.817Z,1.60
2019-02-10T21:40:36.177Z,1.47
2019-02-10T21:43:19.487Z,1.30
2019-02-10T21:45:59.558Z,1.27
2019-02-10T21:48:31.514Z,1.70
2019-02-10T21:50:59.580Z,2.20
2019-02-10T21:53:27.878Z,1.63
2019-02-10T21:55:56.318Z,2.30
2019-02-10T21:58:24.614Z,1.77
2019-02-10T22:00:52.684Z,1.70
2019-02-10T22:03:21.327Z,1.50
2019-02-10T22:05:49.264Z,2.07
2019-02-10T22:08:17.494Z,2.10
2019-02-10T22:10:45.589Z,1.93
2019-02-10T22:13:13.766Z,1.97
2019-02-10T22:15:41.719Z,2.43
2019-02-10T22:18:10.090Z,1.37
2019-02-10T22:20:38.463Z,1.53
2019-02-10T22:23:07.130Z,1.07
2019-02-10T22:25:35.842Z,1.80
2019-02-10T22:28:03.932Z,1.80
2019-02-10T22:30:32.118Z,1.20
2019-02-10T22:33:00.373Z,1.20
2019-02-10T22:35:28.721Z,1.30
2019-02-10T22:37:56.598Z,1.80
2019-02-10T22:40:25.775Z,1.00
2019-02-10T22:42:54.017Z,1.37
2019-02-10T22:45:21.949Z,0.80
2019-02-10T22:47:50.594Z,1.63
2019-02-10T22:50:18.749Z,1.70
2019-02-10T22:52:47.369Z,1.20
2019-02-10T22:55:15.365Z,1.17
2019-02-10T22:57:43.630Z,2.10
2019-02-10T23:00:27.653Z,1.27
2019-02-10T23:02:56.084Z,1.43
2019-02-10T23:05:24.469Z,1.80
2019-02-10T23:07:52.808Z,1.80
2019-02-10T23:10:20.934Z,2.10
2019-02-10T23:12:53.796Z,1.40
2019-02-10T23:15:19.236Z,2.20
2019-02-10T23:17:47.274Z,1.57
2019-02-10T23:20:15.418Z,1.77
2019-02-10T23:22:43.409Z,1.90
2019-02-10T23:25:12.070Z,2.30
2019-02-10T23:27:40.767Z,1.97
2019-02-10T23:30:08.890Z,1.33
2019-02-10T23:32:36.916Z,1.90
2019-02-10T23:35:05.210Z,1.97
2019-02-10T23:37:33.457Z,1.87
2019-02-10T23:40:03.077Z,1.67
2019-02-10T23:42:32.269Z,1.60
2019-02-10T23:45:00.488Z,1.40
2019-02-10T23:47:28.442Z,1.30
2019-02-10T23:49:57.103Z,1.80
2019-02-10T23:52:25.232Z,2.07
2019-02-10T23:54:53.821Z,1.20
2019-02-10T23:57:21.932Z,1.77
2019-02-10T23:59:50.108Z,2.37
